Terminal Aerodrome Forecast
Issued by NWS Corpus Christi, TX

Home | Current Version | Previous Version | Text Only | Print | Product List | Glossary On
Versions: 1 2 3 4 5 6 7 8 9 10 11 12 13 14 15 16 17 18 19 20 21 22 23
000
FTUS44 KCRP 182325
TAFVCT
TAF
KVCT 182325Z 1900/1924 18005KT P6SM SCT015 SCT040
     FM190500 19004KT P6SM BKN008
     FM190800 18005KT 4SM BR OVC006
     FM191000 18005KT 2SM BR OVC004
     FM191300 19007KT 5SM BR BKN012
     FM191500 20010KT P6SM SCT020
     FM191900 18012KT P6SM SCT030 SCT250=

USA.gov is the U.S. government's official web portal to all federal, state and local government web resources and services.